createdAt,value
2023-05-08T00:01:56.433Z,31.30
2023-05-08T00:04:27.168Z,31.30
2023-05-08T00:06:57.351Z,31.40
2023-05-08T00:09:27.409Z,31.40
2023-05-08T00:11:57.296Z,31.20
2023-05-08T00:14:27.211Z,31.20
2023-05-08T00:16:57.696Z,31.00
2023-05-08T00:19:27.400Z,31.00
2023-05-08T00:21:57.295Z,31.00
2023-05-08T00:24:26.978Z,31.10
2023-05-08T00:26:57.358Z,31.20
2023-05-08T00:29:27.451Z,31.20
2023-05-08T00:31:58.180Z,31.20
2023-05-08T00:34:28.059Z,31.20
2023-05-08T00:36:59.289Z,31.20
2023-05-08T00:39:29.066Z,31.20
2023-05-08T00:41:59.135Z,31.20
2023-05-08T00:44:28.942Z,31.20
2023-05-08T00:46:58.793Z,31.20
2023-05-08T00:49:28.657Z,31.30
2023-05-08T00:51:58.983Z,31.40
2023-05-08T00:54:29.475Z,31.30
2023-05-08T00:57:01.181Z,31.30
2023-05-08T00:59:31.414Z,31.40
2023-05-08T01:02:02.218Z,31.40
2023-05-08T01:04:33.430Z,31.40
2023-05-08T01:07:04.728Z,31.30
2023-05-08T01:09:34.786Z,31.30
2023-05-08T01:12:39.799Z,31.30
2023-05-08T01:15:31.896Z,31.20
2023-05-08T01:18:40.855Z,31.00
2023-05-08T01:21:36.299Z,31.00
2023-05-08T01:24:41.598Z,31.00
2023-05-08T01:27:51.189Z,30.90
2023-05-08T01:31:00.587Z,30.80
2023-05-08T01:33:45.651Z,30.70
2023-05-08T01:36:30.954Z,30.80
2023-05-08T01:39:28.719Z,30.90
2023-05-08T01:42:12.354Z,30.80
2023-05-08T01:44:51.211Z,30.90
2023-05-08T01:47:26.382Z,30.80
2023-05-08T01:50:20.071Z,30.70
2023-05-08T01:52:54.701Z,30.70
2023-05-08T01:55:33.375Z,30.60
2023-05-08T01:58:06.283Z,30.50
2023-05-08T02:00:36.602Z,30.40
2023-05-08T02:03:09.791Z,30.30
2023-05-08T02:05:41.354Z,30.40
2023-05-08T02:08:15.210Z,30.20
2023-05-08T02:10:46.698Z,30.20
2023-05-08T02:13:20.694Z,30.20
2023-05-08T02:15:51.923Z,30.10
2023-05-08T02:18:23.768Z,30.00
2023-05-08T02:20:55.779Z,29.90
2023-05-08T02:23:28.129Z,30.00
2023-05-08T02:25:58.849Z,29.90
2023-05-08T02:28:31.613Z,30.00
2023-05-08T02:31:03.422Z,29.90
2023-05-08T02:33:34.666Z,29.90
2023-05-08T02:36:06.034Z,29.90
2023-05-08T02:38:39.226Z,29.80
2023-05-08T02:41:10.668Z,29.80
2023-05-08T02:43:40.780Z,29.70
2023-05-08T02:46:50.111Z,29.70
2023-05-08T02:49:59.951Z,29.70
2023-05-08T02:52:40.030Z,29.60
2023-05-08T02:55:29.351Z,29.60
2023-05-08T02:58:36.858Z,29.50
2023-05-08T03:01:20.811Z,29.50
2023-05-08T03:04:01.871Z,29.60
2023-05-08T03:06:39.062Z,29.50
2023-05-08T03:09:14.334Z,29.40
2023-05-08T03:11:47.168Z,29.40
2023-05-08T03:14:21.416Z,29.40
2023-05-08T03:16:53.022Z,29.40
2023-05-08T03:19:43.765Z,29.30
2023-05-08T03:22:16.246Z,29.20
2023-05-08T03:24:48.269Z,29.20
2023-05-08T03:27:19.548Z,29.20
2023-05-08T03:29:52.142Z,29.30
2023-05-08T03:32:26.304Z,29.10
2023-05-08T03:35:00.352Z,29.00
2023-05-08T03:37:30.985Z,29.10
2023-05-08T03:40:01.148Z,29.00
2023-05-08T03:42:33.865Z,29.00
2023-05-08T03:45:05.603Z,29.00
2023-05-08T03:47:38.423Z,29.00
2023-05-08T03:50:10.973Z,29.10
2023-05-08T03:52:42.070Z,29.10
2023-05-08T03:55:12.572Z,29.20
2023-05-08T03:57:53.490Z,29.30
2023-05-08T04:00:49.358Z,29.50
2023-05-08T04:03:39.798Z,29.50
2023-05-08T04:06:18.949Z,29.60
2023-05-08T04:09:00.516Z,29.70
2023-05-08T04:11:49.555Z,29.70
2023-05-08T04:14:23.148Z,29.80
2023-05-08T04:16:58.281Z,29.90
2023-05-08T04:19:31.921Z,30.00
2023-05-08T04:22:07.829Z,29.80
2023-05-08T04:24:44.926Z,29.90
2023-05-08T04:27:15.951Z,29.80
2023-05-08T04:29:46.398Z,29.90
2023-05-08T04:32:17.486Z,29.90
2023-05-08T04:34:47.759Z,30.00
2023-05-08T04:37:37.942Z,30.20
2023-05-08T04:40:08.707Z,30.10
2023-05-08T04:42:40.159Z,30.00
2023-05-08T04:45:11.737Z,30.10
2023-05-08T04:47:42.048Z,30.20
2023-05-08T04:50:13.249Z,30.20
2023-05-08T04:52:44.528Z,30.30
2023-05-08T04:55:14.624Z,30.20
2023-05-08T04:57:44.482Z,30.30
2023-05-08T05:00:15.488Z,30.40
2023-05-08T05:02:46.801Z,30.40
2023-05-08T05:05:17.086Z,30.50
2023-05-08T05:07:46.754Z,30.60
2023-05-08T05:10:19.202Z,30.70
2023-05-08T05:12:49.837Z,30.70
2023-05-08T05:15:19.639Z,30.70
2023-05-08T05:17:49.639Z,30.80
2023-05-08T05:20:19.371Z,30.80
2023-05-08T05:22:50.514Z,30.80
2023-05-08T05:25:20.387Z,30.90
2023-05-08T05:27:50.281Z,30.90
2023-05-08T05:30:20.439Z,30.70
2023-05-08T05:32:50.422Z,31.10
2023-05-08T05:35:20.315Z,31.30
2023-05-08T05:37:50.687Z,31.50
2023-05-08T05:40:21.745Z,31.50
2023-05-08T05:42:52.550Z,31.60
2023-05-08T05:45:23.307Z,31.70
2023-05-08T05:47:55.529Z,31.80
2023-05-08T05:50:28.705Z,31.90
2023-05-08T05:52:59.415Z,32.00
2023-05-08T05:55:29.911Z,31.80
2023-05-08T05:58:00.845Z,31.70
2023-05-08T06:00:32.105Z,31.70
2023-05-08T06:03:04.010Z,31.80
2023-05-08T06:05:34.261Z,31.90
2023-05-08T06:08:03.954Z,32.10
2023-05-08T06:10:33.882Z,32.20
2023-05-08T06:13:03.722Z,32.30
2023-05-08T06:15:35.725Z,32.40
2023-05-08T06:18:06.255Z,32.60
2023-05-08T06:20:36.008Z,32.60
2023-05-08T06:23:06.180Z,32.40
2023-05-08T06:25:35.857Z,32.30
2023-05-08T06:28:08.054Z,32.40
2023-05-08T06:30:38.210Z,32.30
2023-05-08T06:33:07.819Z,32.30
2023-05-08T06:35:38.019Z,32.40
2023-05-08T06:38:08.296Z,32.40
2023-05-08T06:40:38.141Z,32.50
2023-05-08T06:43:07.769Z,32.50
2023-05-08T06:45:37.566Z,32.50
2023-05-08T06:48:07.933Z,32.60
2023-05-08T06:50:40.991Z,32.60
2023-05-08T06:53:11.190Z,32.60
2023-05-08T06:55:40.778Z,32.60
2023-05-08T06:58:10.636Z,32.70
2023-05-08T07:00:40.310Z,32.90
2023-05-08T07:03:10.281Z,33.00
2023-05-08T07:05:40.003Z,33.10
2023-05-08T07:08:10.137Z,33.20
2023-05-08T07:10:39.741Z,33.20
2023-05-08T07:13:09.587Z,33.10
2023-05-08T07:15:40.652Z,33.00
2023-05-08T07:18:10.545Z,33.10
2023-05-08T07:20:40.178Z,33.30
2023-05-08T07:23:10.059Z,33.30
2023-05-08T07:25:39.710Z,33.20
2023-05-08T07:28:09.790Z,33.00
2023-05-08T07:30:39.431Z,33.00
2023-05-08T07:33:09.553Z,33.20
2023-05-08T07:35:41.304Z,33.30
2023-05-08T07:38:11.960Z,33.50
2023-05-08T07:40:41.623Z,33.50
2023-05-08T07:43:11.572Z,33.70
2023-05-08T07:45:41.216Z,33.70
2023-05-08T07:48:11.538Z,33.50
2023-05-08T07:50:41.213Z,33.30
2023-05-08T07:53:11.073Z,33.30
2023-05-08T07:55:40.767Z,33.30
2023-05-08T07:58:10.696Z,33.40
2023-05-08T08:00:41.155Z,33.30
2023-05-08T08:03:11.291Z,33.30
2023-05-08T08:05:41.278Z,33.30
2023-05-08T08:08:10.962Z,33.20
2023-05-08T08:10:41.151Z,33.30
2023-05-08T08:13:10.823Z,33.30
2023-05-08T08:15:41.203Z,33.10
2023-05-08T08:18:11.169Z,33.10
2023-05-08T08:20:41.162Z,33.10
2023-05-08T08:23:10.883Z,33.10
2023-05-08T08:25:40.753Z,33.00
2023-05-08T08:28:10.476Z,33.10
2023-05-08T08:30:40.343Z,33.10
2023-05-08T08:33:10.154Z,33.00
2023-05-08T08:35:40.024Z,33.00
2023-05-08T08:38:09.722Z,33.00
2023-05-08T08:40:43.873Z,33.20
2023-05-08T08:43:13.900Z,33.40
2023-05-08T08:45:43.562Z,33.40
2023-05-08T08:48:14.759Z,33.50
2023-05-08T08:50:49.148Z,33.40
2023-05-08T08:53:39.372Z,33.50
2023-05-08T08:56:11.163Z,33.40
2023-05-08T08:58:51.334Z,33.10
2023-05-08T09:01:22.483Z,33.00
2023-05-08T09:03:52.919Z,32.90
2023-05-08T09:06:23.116Z,33.00
2023-05-08T09:08:56.840Z,33.00
2023-05-08T09:11:30.323Z,33.00
2023-05-08T09:14:01.223Z,33.00
2023-05-08T09:16:31.184Z,33.20
2023-05-08T09:19:01.602Z,33.00
2023-05-08T09:21:31.734Z,33.10
2023-05-08T09:24:03.708Z,33.00
2023-05-08T09:26:38.806Z,33.10
2023-05-08T09:29:26.707Z,32.90
2023-05-08T09:31:57.638Z,33.00
2023-05-08T09:34:32.287Z,33.10
2023-05-08T09:37:21.841Z,33.20
2023-05-08T09:39:51.863Z,33.20
2023-05-08T09:42:21.756Z,33.20
2023-05-08T09:44:55.256Z,33.00
2023-05-08T09:47:27.066Z,32.90
2023-05-08T09:50:09.224Z,32.90
2023-05-08T09:52:40.789Z,33.00
2023-05-08T09:55:12.850Z,33.00
2023-05-08T09:57:55.255Z,33.00
2023-05-08T10:00:26.859Z,33.00
2023-05-08T10:03:14.674Z,33.00
2023-05-08T10:05:45.005Z,32.90
2023-05-08T10:08:24.615Z,32.90
2023-05-08T10:10:54.823Z,32.90
2023-05-08T10:13:25.014Z,32.90
2023-05-08T10:15:58.403Z,32.80
2023-05-08T10:18:33.621Z,32.80
2023-05-08T10:21:08.224Z,32.70
2023-05-08T10:23:41.528Z,32.90
2023-05-08T10:26:25.276Z,33.00
2023-05-08T10:29:06.561Z,33.00
2023-05-08T10:31:45.578Z,32.90
2023-05-08T10:34:20.286Z,33.00
2023-05-08T10:36:53.367Z,33.00
2023-05-08T10:39:25.537Z,32.90
2023-05-08T10:41:56.900Z,32.80
2023-05-08T10:44:28.725Z,32.80
2023-05-08T10:47:24.481Z,32.80
2023-05-08T10:50:21.015Z,32.90
2023-05-08T10:53:23.839Z,32.90
2023-05-08T10:55:54.570Z,33.00
2023-05-08T10:58:44.105Z,32.90
2023-05-08T11:01:15.272Z,32.90
2023-05-08T11:03:47.803Z,32.90
2023-05-08T11:06:18.258Z,32.90
2023-05-08T11:08:50.988Z,32.80
2023-05-08T11:11:31.122Z,32.80
2023-05-08T11:14:17.129Z,32.80
2023-05-08T11:17:10.507Z,32.70
2023-05-08T11:19:56.651Z,32.70
2023-05-08T11:22:30.300Z,32.50
2023-05-08T11:25:06.854Z,32.50
2023-05-08T11:28:04.582Z,32.40
2023-05-08T11:30:39.876Z,32.40
2023-05-08T11:33:18.020Z,32.40
2023-05-08T11:36:17.920Z,32.30
2023-05-08T11:39:09.266Z,32.30
2023-05-08T11:41:41.054Z,32.30
2023-05-08T11:44:21.371Z,32.30
2023-05-08T11:46:54.204Z,32.10
2023-05-08T11:49:29.795Z,32.10
2023-05-08T11:52:05.866Z,32.10
2023-05-08T11:54:35.981Z,32.00
2023-05-08T11:57:08.962Z,31.90
2023-05-08T11:59:39.178Z,31.90
2023-05-08T12:02:09.911Z,31.90
2023-05-08T12:04:48.157Z,31.90
2023-05-08T12:07:18.357Z,31.80
2023-05-08T12:09:49.055Z,31.80
2023-05-08T12:12:19.189Z,31.80
2023-05-08T12:14:52.968Z,31.70
2023-05-08T12:17:23.359Z,31.70
2023-05-08T12:19:57.988Z,31.70
2023-05-08T12:22:28.091Z,31.70
2023-05-08T12:24:58.288Z,31.60
2023-05-08T12:27:29.449Z,31.60
2023-05-08T12:30:00.930Z,31.50
2023-05-08T12:32:31.328Z,31.50
2023-05-08T12:35:02.095Z,31.50
2023-05-08T12:37:32.308Z,31.50
2023-05-08T12:40:02.236Z,31.40
2023-05-08T12:42:52.325Z,31.20
2023-05-08T12:45:23.586Z,31.10
2023-05-08T12:47:55.878Z,31.00
2023-05-08T12:50:29.184Z,31.10
2023-05-08T12:53:05.998Z,31.20
2023-05-08T12:55:39.756Z,31.20
2023-05-08T12:58:14.690Z,31.30
2023-05-08T13:00:51.001Z,31.30
2023-05-08T13:03:39.975Z,31.20
2023-05-08T13:06:21.260Z,31.20
2023-05-08T13:08:56.644Z,31.30
2023-05-08T13:11:35.847Z,31.20
2023-05-08T13:14:05.663Z,31.10
2023-05-08T13:16:45.595Z,30.90
2023-05-08T13:19:17.832Z,31.00
2023-05-08T13:21:49.568Z,31.10
2023-05-08T13:24:19.537Z,31.10
2023-05-08T13:26:49.208Z,31.10
2023-05-08T13:29:23.709Z,31.10
2023-05-08T13:31:54.081Z,30.90
2023-05-08T13:34:23.844Z,31.00
2023-05-08T13:36:53.814Z,31.00
2023-05-08T13:39:23.497Z,31.00
2023-05-08T13:41:54.514Z,30.90
2023-05-08T13:44:24.712Z,30.60
2023-05-08T13:46:54.385Z,30.50
2023-05-08T13:49:26.204Z,30.40
2023-05-08T13:51:57.283Z,30.60
2023-05-08T13:54:27.941Z,30.40
2023-05-08T13:56:58.272Z,30.10
2023-05-08T13:59:29.187Z,30.20
2023-05-08T14:01:59.351Z,30.40
2023-05-08T14:04:29.890Z,30.60
2023-05-08T14:07:00.052Z,30.50
2023-05-08T14:09:30.146Z,30.60
2023-05-08T14:12:00.266Z,30.70
2023-05-08T14:14:32.257Z,30.60
2023-05-08T14:17:03.121Z,30.40
2023-05-08T14:19:33.504Z,30.50
2023-05-08T14:22:04.166Z,30.50
2023-05-08T14:24:34.257Z,30.30
2023-05-08T14:27:07.418Z,30.30
2023-05-08T14:29:37.466Z,30.30
2023-05-08T14:32:07.745Z,30.20
2023-05-08T14:34:38.263Z,30.10
2023-05-08T14:37:08.043Z,29.90
2023-05-08T14:39:38.038Z,29.90
2023-05-08T14:44:40.932Z,30.00
2023-05-08T14:47:11.926Z,29.90
2023-05-08T14:49:42.183Z,30.00
2023-05-08T14:52:12.057Z,29.90
2023-05-08T14:54:43.489Z,29.90
2023-05-08T14:57:13.826Z,29.90
2023-05-08T14:59:52.272Z,29.90
2023-05-08T15:02:22.388Z,29.90
2023-05-08T15:04:52.143Z,29.90
2023-05-08T15:07:23.092Z,29.80
2023-05-08T15:09:52.693Z,29.90
2023-05-08T15:12:22.517Z,29.80
2023-05-08T15:14:52.682Z,29.80
2023-05-08T15:17:23.164Z,29.80
2023-05-08T15:19:52.910Z,29.70
2023-05-08T15:22:22.910Z,29.70
2023-05-08T15:24:52.618Z,29.70
2023-05-08T15:27:22.544Z,29.60
2023-05-08T15:29:52.200Z,29.70
2023-05-08T15:32:22.224Z,29.60
2023-05-08T15:34:52.247Z,29.60
2023-05-08T15:37:22.186Z,29.60
2023-05-08T15:39:51.901Z,29.60
2023-05-08T15:42:22.245Z,29.60
2023-05-08T15:44:54.922Z,29.60
2023-05-08T15:47:31.280Z,29.60
2023-05-08T15:50:01.122Z,29.50
2023-05-08T15:52:30.749Z,29.30
2023-05-08T15:55:00.924Z,29.30
2023-05-08T15:57:30.642Z,29.10
2023-05-08T16:00:00.399Z,29.10
2023-05-08T16:02:30.181Z,29.10
2023-05-08T16:05:00.282Z,29.10
2023-05-08T16:07:30.959Z,29.00
2023-05-08T16:10:01.014Z,28.80
2023-05-08T16:12:30.703Z,28.90
2023-05-08T16:15:00.883Z,29.10
2023-05-08T16:17:30.536Z,29.20
2023-05-08T16:20:02.698Z,29.40
2023-05-08T16:22:32.993Z,29.20
2023-05-08T16:25:02.783Z,29.10
2023-05-08T16:27:32.806Z,29.20
2023-05-08T16:30:02.442Z,29.20
2023-05-08T16:32:32.264Z,29.20
2023-05-08T16:35:02.028Z,28.90
2023-05-08T16:37:32.126Z,29.10
2023-05-08T16:40:01.799Z,28.80
2023-05-08T16:42:31.796Z,28.70
2023-05-08T16:45:01.392Z,28.80
2023-05-08T16:47:31.517Z,29.10
2023-05-08T16:50:02.118Z,29.10
2023-05-08T16:52:32.832Z,29.20
2023-05-08T16:55:03.133Z,29.30
2023-05-08T16:57:33.337Z,29.20
2023-05-08T17:00:02.928Z,29.20
2023-05-08T17:02:33.233Z,28.80
2023-05-08T17:05:03.013Z,28.50
2023-05-08T17:07:33.074Z,28.60
2023-05-08T17:10:02.927Z,28.60
2023-05-08T17:12:33.172Z,28.60
2023-05-08T17:15:02.906Z,28.70
2023-05-08T17:17:32.777Z,28.70
2023-05-08T17:20:02.510Z,28.90
2023-05-08T17:22:32.323Z,29.00
2023-05-08T17:25:02.045Z,29.00
2023-05-08T17:27:32.198Z,29.00
2023-05-08T17:30:02.069Z,29.00
2023-05-08T17:32:31.946Z,28.70
2023-05-08T17:35:01.675Z,28.60
2023-05-08T17:37:31.589Z,28.50
2023-05-08T17:40:01.182Z,28.50
2023-05-08T17:42:31.001Z,28.60
2023-05-08T17:45:00.903Z,28.70
2023-05-08T17:47:30.886Z,28.70
2023-05-08T17:50:00.626Z,28.70
2023-05-08T17:52:31.401Z,28.80
2023-05-08T17:55:01.116Z,28.90
2023-05-08T17:57:31.235Z,28.90
2023-05-08T18:00:01.109Z,28.80
2023-05-08T18:02:31.036Z,28.70
2023-05-08T18:05:00.705Z,28.60
2023-05-08T18:07:30.806Z,28.70
2023-05-08T18:10:01.508Z,28.80
2023-05-08T18:12:31.322Z,28.80
2023-05-08T18:15:01.437Z,28.90
2023-05-08T18:17:31.528Z,28.90
2023-05-08T18:20:01.350Z,28.90
2023-05-08T18:22:31.592Z,28.80
2023-05-08T18:25:02.114Z,28.90
2023-05-08T18:27:34.925Z,28.80
2023-05-08T18:30:05.857Z,28.50
2023-05-08T18:32:36.846Z,28.50
2023-05-08T18:35:07.118Z,28.70
2023-05-08T18:37:36.904Z,28.70
2023-05-08T18:40:07.882Z,28.70
2023-05-08T18:42:37.799Z,28.60
2023-05-08T18:45:08.651Z,28.50
2023-05-08T18:47:38.674Z,28.60
2023-05-08T18:50:08.860Z,28.70
2023-05-08T18:52:39.041Z,28.50
2023-05-08T18:55:09.209Z,28.40
2023-05-08T18:57:39.574Z,28.40
2023-05-08T19:00:10.198Z,28.40
2023-05-08T19:02:40.403Z,28.40
2023-05-08T19:05:10.346Z,28.40
2023-05-08T19:07:40.217Z,28.50
2023-05-08T19:10:11.111Z,28.50
2023-05-08T19:12:41.493Z,28.50
2023-05-08T19:15:15.697Z,28.50
2023-05-08T19:17:47.027Z,28.60
2023-05-08T19:20:17.104Z,28.50
2023-05-08T19:22:48.297Z,28.40
2023-05-08T19:25:18.450Z,28.30
2023-05-08T19:27:48.240Z,28.20
2023-05-08T19:30:18.119Z,28.20
2023-05-08T19:32:48.093Z,28.10
2023-05-08T19:35:18.140Z,28.10
2023-05-08T19:37:47.994Z,28.10
2023-05-08T19:40:18.035Z,28.20
2023-05-08T19:42:47.931Z,28.20
2023-05-08T19:45:18.093Z,28.20
2023-05-08T19:47:51.148Z,28.30
2023-05-08T19:50:21.384Z,28.30
2023-05-08T19:52:51.801Z,28.00
2023-05-08T19:55:22.080Z,27.80
2023-05-08T19:57:51.729Z,27.90
2023-05-08T20:00:21.946Z,27.90
2023-05-08T20:02:51.716Z,28.00
2023-05-08T20:05:23.416Z,28.00
2023-05-08T20:07:55.592Z,28.10
2023-05-08T20:10:25.950Z,28.20
2023-05-08T20:12:56.089Z,28.30
2023-05-08T20:15:26.419Z,28.30
2023-05-08T20:17:56.984Z,28.30
2023-05-08T20:20:29.045Z,28.20
2023-05-08T20:22:59.885Z,28.20
2023-05-08T20:25:30.168Z,28.20
2023-05-08T20:27:59.981Z,28.30
2023-05-08T20:30:29.888Z,28.30
2023-05-08T20:33:05.903Z,28.30
2023-05-08T20:35:36.861Z,28.30
2023-05-08T20:38:08.791Z,28.10
2023-05-08T20:40:39.212Z,28.20
2023-05-08T20:43:08.993Z,28.20
2023-05-08T20:45:39.366Z,28.10
2023-05-08T20:48:09.114Z,28.20
2023-05-08T20:50:39.874Z,28.10
2023-05-08T20:53:10.291Z,28.00
2023-05-08T20:55:40.517Z,28.10
2023-05-08T20:58:12.124Z,28.10
2023-05-08T21:00:43.449Z,28.10
2023-05-08T21:03:14.209Z,28.10
2023-05-08T21:05:44.297Z,28.10
2023-05-08T21:08:14.137Z,28.10
2023-05-08T21:10:43.745Z,28.10
2023-05-08T21:13:13.830Z,28.00
2023-05-08T21:15:43.507Z,28.00
2023-05-08T21:18:13.497Z,28.00
2023-05-08T21:20:46.582Z,27.90
2023-05-08T21:23:16.598Z,27.90
2023-05-08T21:25:48.821Z,28.00
2023-05-08T21:28:19.164Z,28.00
2023-05-08T21:30:49.109Z,28.10
2023-05-08T21:33:19.618Z,28.10
2023-05-08T21:35:49.912Z,28.10
2023-05-08T21:38:20.498Z,28.10
2023-05-08T21:40:51.187Z,28.00
2023-05-08T21:43:20.817Z,28.00
2023-05-08T21:45:50.658Z,27.80
2023-05-08T21:48:21.143Z,27.90
2023-05-08T21:50:51.185Z,27.90
2023-05-08T21:53:21.650Z,28.00
2023-05-08T21:55:51.989Z,28.00
2023-05-08T21:58:22.568Z,28.00
2023-05-08T22:00:53.941Z,27.90
2023-05-08T22:03:24.077Z,27.90
2023-05-08T22:05:54.154Z,27.80
2023-05-08T22:08:24.377Z,27.70
2023-05-08T22:10:54.743Z,27.80
2023-05-08T22:13:24.968Z,27.80
2023-05-08T22:15:55.371Z,27.80
2023-05-08T22:18:25.592Z,27.90
2023-05-08T22:20:56.580Z,27.80
2023-05-08T22:23:28.747Z,27.70
2023-05-08T22:25:58.602Z,27.70
2023-05-08T22:28:29.490Z,27.70
2023-05-08T22:34:08.819Z,27.40
2023-05-08T22:36:42.621Z,27.60
2023-05-08T22:39:14.121Z,27.60
2023-05-08T22:41:44.597Z,27.60
2023-05-08T22:44:20.974Z,27.70
2023-05-08T22:46:51.225Z,27.70
2023-05-08T22:49:22.091Z,27.70
2023-05-08T22:51:52.959Z,27.80
2023-05-08T22:54:23.769Z,27.70
2023-05-08T22:56:53.825Z,27.70
2023-05-08T22:59:23.418Z,27.70
2023-05-08T23:01:54.098Z,27.70
2023-05-08T23:04:23.846Z,27.70
2023-05-08T23:06:54.422Z,27.60
2023-05-08T23:09:24.537Z,27.60
2023-05-08T23:11:54.183Z,27.70
2023-05-08T23:14:24.651Z,27.70
2023-05-08T23:16:54.742Z,27.70
2023-05-08T23:19:24.506Z,27.70
2023-05-08T23:21:55.466Z,27.80
2023-05-08T23:24:25.425Z,27.70
2023-05-08T23:26:55.246Z,27.50
2023-05-08T23:29:25.120Z,27.60
2023-05-08T23:31:55.215Z,27.70
2023-05-08T23:34:25.186Z,27.70
2023-05-08T23:36:55.263Z,27.70
2023-05-08T23:39:25.275Z,27.80
2023-05-08T23:41:54.977Z,27.80
2023-05-08T23:44:24.899Z,27.80
2023-05-08T23:46:54.683Z,27.80
2023-05-08T23:49:24.605Z,27.70
2023-05-08T23:51:54.515Z,27.70
2023-05-08T23:54:24.988Z,27.70
2023-05-08T23:56:54.804Z,27.90
2023-05-08T23:59:25.197Z,27.90
